createdAt,value
2019-03-29T00:00:20.962Z,5.90
2019-03-29T00:00:52.211Z,8.25
2019-03-29T00:01:23.438Z,5.60
2019-03-29T00:01:54.637Z,5.87
2019-03-29T00:02:25.843Z,5.78
2019-03-29T00:02:57.037Z,5.37
2019-03-29T00:03:28.268Z,5.83
2019-03-29T00:04:00.263Z,4.67
2019-03-29T00:04:32.172Z,4.90
2019-03-29T00:05:03.383Z,7.30
2019-03-29T00:05:34.640Z,8.35
2019-03-29T00:06:05.834Z,5.05
2019-03-29T00:06:37.568Z,5.80
2019-03-29T00:07:08.849Z,6.28
2019-03-29T00:07:41.901Z,5.25
2019-03-29T00:08:13.039Z,6.75
2019-03-29T00:08:44.237Z,6.17
2019-03-29T00:09:15.459Z,5.58
2019-03-29T00:09:46.711Z,6.72
2019-03-29T00:10:17.927Z,6.30
2019-03-29T00:10:49.160Z,5.65
2019-03-29T00:11:20.374Z,6.28
2019-03-29T00:11:51.594Z,6.50
2019-03-29T00:12:22.856Z,7.00
2019-03-29T00:12:54.052Z,5.65
2019-03-29T00:13:25.247Z,6.20
2019-03-29T00:13:56.445Z,6.53
2019-03-29T00:14:27.675Z,8.93
2019-03-29T00:14:58.884Z,7.17
2019-03-29T00:15:30.089Z,7.85
2019-03-29T00:16:01.306Z,6.37
2019-03-29T00:16:32.514Z,6.47
2019-03-29T00:17:03.732Z,8.13
2019-03-29T00:17:35.013Z,6.45
2019-03-29T00:18:06.634Z,6.78
2019-03-29T00:18:37.853Z,6.50
2019-03-29T00:19:09.038Z,6.55
2019-03-29T00:19:40.300Z,6.65
2019-03-29T00:20:11.508Z,7.35
2019-03-29T00:20:42.709Z,8.60
2019-03-29T00:21:13.927Z,8.35
2019-03-29T00:21:45.196Z,8.75
2019-03-29T00:22:16.411Z,7.12
2019-03-29T00:22:47.615Z,9.38
2019-03-29T00:23:18.811Z,6.75
2019-03-29T00:23:50.013Z,8.40
2019-03-29T00:24:21.227Z,7.35
2019-03-29T00:24:52.437Z,8.45
2019-03-29T00:25:23.678Z,6.35
2019-03-29T00:25:54.901Z,7.50
2019-03-29T00:26:26.140Z,7.28
2019-03-29T00:26:57.335Z,7.62
2019-03-29T00:27:28.619Z,8.28
2019-03-29T00:27:59.846Z,8.95
2019-03-29T00:28:31.072Z,10.15
2019-03-29T00:29:03.094Z,6.25
2019-03-29T00:29:34.497Z,7.00
2019-03-29T00:30:05.813Z,9.35
2019-03-29T00:30:37.070Z,9.13
2019-03-29T00:31:08.281Z,9.23
2019-03-29T00:31:40.080Z,7.12
2019-03-29T00:32:11.344Z,7.58
2019-03-29T00:32:42.547Z,8.30
2019-03-29T00:33:13.764Z,8.48
2019-03-29T00:33:44.969Z,6.95
2019-03-29T00:34:17.113Z,9.18
2019-03-29T00:34:48.348Z,9.75
2019-03-29T00:35:19.547Z,7.70
2019-03-29T00:35:50.773Z,10.80
2019-03-29T00:36:22.041Z,11.05
2019-03-29T00:36:53.284Z,10.68
2019-03-29T00:37:24.537Z,12.55
2019-03-29T00:37:56.109Z,6.95
2019-03-29T00:38:27.458Z,6.92
2019-03-29T00:38:58.664Z,6.42
2019-03-29T00:39:29.893Z,7.58
2019-03-29T00:40:01.079Z,7.62
2019-03-29T00:40:32.536Z,6.08
2019-03-29T00:41:04.373Z,7.03
2019-03-29T00:41:35.586Z,8.45
2019-03-29T00:42:06.804Z,7.17
2019-03-29T00:42:38.014Z,7.12
2019-03-29T00:43:09.301Z,10.88
2019-03-29T00:43:40.533Z,7.35
2019-03-29T00:44:11.740Z,6.80
2019-03-29T00:44:42.968Z,9.35
2019-03-29T00:45:14.214Z,9.05
2019-03-29T00:45:45.829Z,8.00
2019-03-29T00:46:17.105Z,8.25
2019-03-29T00:46:48.324Z,8.85
2019-03-29T00:47:19.517Z,8.20
2019-03-29T00:47:50.766Z,8.83
2019-03-29T00:48:22.181Z,6.70
2019-03-29T00:48:53.342Z,6.28
2019-03-29T00:49:24.561Z,7.47
2019-03-29T00:49:55.831Z,5.67
2019-03-29T00:50:27.035Z,7.58
2019-03-29T00:50:59.004Z,6.05
2019-03-29T00:51:30.328Z,6.42
2019-03-29T00:52:01.560Z,7.50
2019-03-29T00:52:32.752Z,10.28
2019-03-29T00:53:03.958Z,8.28
2019-03-29T00:53:35.875Z,6.37
2019-03-29T00:54:07.351Z,7.80
2019-03-29T00:54:38.530Z,7.70
2019-03-29T00:55:09.785Z,9.13
2019-03-29T00:55:41.006Z,8.88
2019-03-29T00:56:15.219Z,12.35
2019-03-29T00:56:46.424Z,9.45
2019-03-29T00:57:17.649Z,7.70
2019-03-29T00:57:48.839Z,8.18
2019-03-29T00:58:20.045Z,9.65
2019-03-29T00:58:51.271Z,6.83
2019-03-29T00:59:22.496Z,7.45
2019-03-29T00:59:53.693Z,10.50
2019-03-29T01:00:24.997Z,11.68
2019-03-29T01:00:56.288Z,10.03
2019-03-29T01:01:27.514Z,11.12
2019-03-29T01:01:58.718Z,11.10
2019-03-29T01:02:29.943Z,11.83
2019-03-29T01:03:01.159Z,11.97
2019-03-29T01:03:32.527Z,13.13
2019-03-29T01:04:03.736Z,14.73
2019-03-29T01:04:34.968Z,12.85
2019-03-29T01:05:06.172Z,13.83
2019-03-29T01:05:37.431Z,12.23
2019-03-29T01:06:08.691Z,13.43
2019-03-29T01:06:39.907Z,12.85
2019-03-29T01:07:11.131Z,15.75
2019-03-29T01:07:42.381Z,10.75
2019-03-29T01:08:13.625Z,11.75
2019-03-29T01:08:44.852Z,13.30
2019-03-29T01:09:16.067Z,14.25
2019-03-29T01:09:47.291Z,13.90
2019-03-29T01:10:18.490Z,11.55
2019-03-29T01:10:49.693Z,13.50
2019-03-29T01:11:21.003Z,13.22
2019-03-29T01:11:52.253Z,14.38
2019-03-29T01:12:23.463Z,14.15
2019-03-29T01:12:54.670Z,12.63
2019-03-29T01:13:25.884Z,12.28
2019-03-29T01:13:57.091Z,10.93
2019-03-29T01:14:28.302Z,12.85
2019-03-29T01:14:59.511Z,12.82
2019-03-29T01:15:30.724Z,12.20
2019-03-29T01:16:02.130Z,12.68
2019-03-29T01:16:33.438Z,13.30
2019-03-29T01:17:04.635Z,12.55
2019-03-29T01:17:35.837Z,12.05
2019-03-29T01:18:07.054Z,12.65
2019-03-29T01:18:38.348Z,12.50
2019-03-29T01:19:09.573Z,11.60
2019-03-29T01:19:40.794Z,10.30
2019-03-29T01:20:12.003Z,9.95
2019-03-29T01:20:43.210Z,12.05
2019-03-29T01:21:14.413Z,13.45
2019-03-29T01:21:45.671Z,13.30
2019-03-29T01:22:16.876Z,14.25
2019-03-29T01:22:48.081Z,13.72
2019-03-29T01:23:19.321Z,14.60
2019-03-29T01:23:50.582Z,13.83
2019-03-29T01:24:22.544Z,16.27
2019-03-29T01:24:53.749Z,18.00
2019-03-29T01:25:25.033Z,18.07
2019-03-29T01:25:56.244Z,17.25
2019-03-29T01:26:27.467Z,16.52
2019-03-29T01:26:58.718Z,19.65
2019-03-29T01:27:29.940Z,20.12
2019-03-29T01:28:01.170Z,25.45
2019-03-29T01:28:33.661Z,20.43
2019-03-29T01:29:04.961Z,18.15
2019-03-29T01:29:36.185Z,19.35
2019-03-29T01:30:07.713Z,20.80
2019-03-29T01:30:38.951Z,18.27
2019-03-29T01:31:10.186Z,21.50
2019-03-29T01:31:41.351Z,18.62
2019-03-29T01:32:12.635Z,18.92
2019-03-29T01:32:43.867Z,18.30
2019-03-29T01:33:15.075Z,17.10
2019-03-29T01:33:46.311Z,17.85
2019-03-29T01:34:17.526Z,15.38
2019-03-29T01:34:48.738Z,19.07
2019-03-29T01:35:19.942Z,15.98
2019-03-29T01:35:51.265Z,18.07
2019-03-29T01:36:22.473Z,17.10
2019-03-29T01:36:53.878Z,18.35
2019-03-29T01:37:25.436Z,16.73
2019-03-29T01:37:56.710Z,17.42
2019-03-29T01:38:27.995Z,19.67
2019-03-29T01:38:59.212Z,14.93
2019-03-29T01:39:30.453Z,15.10
2019-03-29T01:40:01.672Z,17.37
2019-03-29T01:40:32.995Z,16.35
2019-03-29T01:41:04.204Z,18.95
2019-03-29T01:41:35.418Z,15.28
2019-03-29T01:42:06.625Z,19.50
2019-03-29T01:42:37.832Z,17.98
2019-03-29T01:43:09.363Z,20.25
2019-03-29T01:43:41.304Z,18.45
2019-03-29T01:44:12.509Z,16.17
2019-03-29T01:44:43.756Z,18.05
2019-03-29T01:45:14.954Z,16.80
2019-03-29T01:45:46.269Z,18.02
2019-03-29T01:46:17.498Z,18.60
2019-03-29T01:46:48.703Z,16.40
2019-03-29T01:47:19.926Z,14.33
2019-03-29T01:47:51.179Z,16.42
2019-03-29T01:48:23.113Z,18.52
2019-03-29T01:48:54.547Z,15.32
2019-03-29T01:49:25.762Z,17.42
2019-03-29T01:49:56.985Z,19.10
2019-03-29T01:50:28.211Z,17.27
2019-03-29T01:50:59.434Z,19.12
2019-03-29T01:51:30.663Z,18.95
2019-03-29T01:52:01.924Z,17.82
2019-03-29T01:52:33.114Z,18.25
2019-03-29T01:53:04.330Z,17.32
2019-03-29T01:53:35.583Z,18.40
2019-03-29T01:54:06.790Z,16.87
2019-03-29T01:54:38.001Z,17.20
2019-03-29T01:55:09.212Z,17.20
2019-03-29T01:55:40.409Z,16.62
2019-03-29T01:56:11.622Z,16.77
2019-03-29T01:56:42.834Z,18.70
2019-03-29T01:57:14.048Z,19.75
2019-03-29T01:57:45.315Z,15.38
2019-03-29T01:58:16.521Z,17.32
2019-03-29T01:58:47.797Z,17.05
2019-03-29T01:59:18.992Z,17.50
2019-03-29T01:59:50.202Z,18.02
2019-03-29T02:00:21.473Z,17.35
2019-03-29T02:00:52.669Z,21.65
2019-03-29T02:01:23.892Z,18.00
2019-03-29T02:01:55.285Z,20.50
2019-03-29T02:02:26.495Z,18.02
2019-03-29T02:02:57.859Z,18.12
2019-03-29T02:03:29.101Z,17.80
2019-03-29T02:04:00.368Z,16.77
2019-03-29T02:04:31.562Z,16.17
2019-03-29T02:05:02.784Z,18.70
2019-03-29T02:05:34.011Z,16.93
2019-03-29T02:06:05.221Z,16.80
2019-03-29T02:06:36.452Z,18.00
2019-03-29T02:07:07.680Z,18.80
2019-03-29T02:07:38.958Z,17.00
2019-03-29T02:08:10.183Z,16.27
2019-03-29T02:08:41.399Z,14.23
2019-03-29T02:09:12.652Z,17.62
2019-03-29T02:09:43.859Z,17.60
2019-03-29T02:10:15.060Z,17.40
2019-03-29T02:10:46.267Z,17.57
2019-03-29T02:11:17.481Z,14.80
2019-03-29T02:11:48.756Z,15.75
2019-03-29T02:12:19.957Z,15.95
2019-03-29T02:12:51.177Z,15.83
2019-03-29T02:13:22.401Z,15.75
2019-03-29T02:13:53.603Z,15.75
2019-03-29T02:14:24.826Z,16.05
2019-03-29T02:14:56.035Z,15.38
2019-03-29T02:15:27.258Z,17.05
2019-03-29T02:15:58.477Z,14.10
2019-03-29T02:16:29.933Z,14.28
2019-03-29T02:17:01.231Z,14.95
2019-03-29T02:17:32.432Z,13.75
2019-03-29T02:18:03.706Z,13.98
2019-03-29T02:18:34.912Z,15.25
2019-03-29T02:19:06.279Z,13.85
2019-03-29T02:19:37.555Z,13.80
2019-03-29T02:20:08.762Z,14.35
2019-03-29T02:20:39.968Z,16.40
2019-03-29T02:21:11.207Z,14.68
2019-03-29T02:21:43.055Z,14.13
2019-03-29T02:22:14.543Z,15.65
2019-03-29T02:22:45.824Z,15.18
2019-03-29T02:23:17.026Z,15.00
2019-03-29T02:23:48.223Z,12.28
2019-03-29T02:24:19.443Z,13.35
2019-03-29T02:24:50.685Z,14.13
2019-03-29T02:25:21.985Z,13.40
2019-03-29T02:25:53.197Z,12.82
2019-03-29T02:26:24.451Z,12.53
2019-03-29T02:26:55.659Z,13.88
2019-03-29T02:27:27.190Z,15.00
2019-03-29T02:27:58.608Z,13.65
2019-03-29T02:28:29.825Z,12.37
2019-03-29T02:29:01.038Z,13.18
2019-03-29T02:29:32.258Z,13.60
2019-03-29T02:30:04.578Z,13.68
2019-03-29T02:30:37.395Z,14.47
2019-03-29T02:31:08.607Z,14.63
2019-03-29T02:31:42.134Z,12.05
2019-03-29T02:32:12.767Z,13.65
2019-03-29T02:32:43.974Z,13.28
2019-03-29T02:33:15.242Z,16.05
2019-03-29T02:33:47.675Z,12.28
2019-03-29T02:34:19.413Z,12.47
2019-03-29T02:34:50.631Z,12.93
2019-03-29T02:35:21.848Z,13.55
2019-03-29T02:35:53.061Z,14.07
2019-03-29T02:36:24.297Z,13.18
2019-03-29T02:36:55.582Z,14.85
2019-03-29T02:37:26.761Z,14.65
2019-03-29T02:37:57.986Z,13.53
2019-03-29T02:38:29.230Z,15.68
2019-03-29T02:39:00.466Z,13.60
2019-03-29T02:39:31.743Z,12.80
2019-03-29T02:40:02.978Z,13.60
2019-03-29T02:40:34.199Z,11.22
2019-03-29T02:41:05.411Z,12.43
2019-03-29T02:41:36.685Z,14.05
2019-03-29T02:42:07.914Z,11.93
2019-03-29T02:42:39.123Z,11.40
2019-03-29T02:43:11.107Z,11.68
2019-03-29T02:43:42.424Z,13.70
2019-03-29T02:44:13.630Z,14.03
2019-03-29T02:44:44.833Z,13.90
2019-03-29T02:45:16.027Z,11.95
2019-03-29T02:45:47.236Z,15.28
2019-03-29T02:46:18.491Z,11.85
2019-03-29T02:46:49.849Z,10.58
2019-03-29T02:47:21.683Z,12.88
2019-03-29T02:47:53.304Z,12.95
2019-03-29T02:48:24.514Z,11.28
2019-03-29T02:48:55.713Z,13.85
2019-03-29T02:49:26.933Z,12.23
2019-03-29T02:49:58.170Z,13.98
2019-03-29T02:50:29.398Z,12.80
2019-03-29T02:51:00.681Z,12.18
2019-03-29T02:51:32.911Z,11.97
2019-03-29T02:52:04.370Z,11.03
2019-03-29T02:52:35.583Z,12.50
2019-03-29T02:53:06.843Z,12.37
2019-03-29T02:53:38.046Z,13.22
2019-03-29T02:54:09.270Z,12.07
2019-03-29T02:54:40.522Z,11.35
2019-03-29T02:55:11.757Z,15.08
2019-03-29T02:55:42.957Z,11.85
2019-03-29T02:56:14.239Z,12.80
2019-03-29T02:56:45.489Z,11.30
2019-03-29T02:57:16.713Z,14.25
2019-03-29T02:57:47.904Z,13.00
2019-03-29T02:58:19.197Z,13.05
2019-03-29T02:58:50.427Z,12.55
2019-03-29T02:59:21.661Z,13.30
2019-03-29T02:59:52.904Z,13.22
2019-03-29T03:00:24.130Z,12.55
2019-03-29T03:00:55.372Z,12.82
2019-03-29T03:01:26.538Z,12.75
2019-03-29T03:01:57.753Z,13.45
2019-03-29T03:02:28.961Z,12.88
2019-03-29T03:03:00.160Z,12.68
2019-03-29T03:03:31.438Z,13.83
2019-03-29T03:04:02.655Z,10.78
2019-03-29T03:04:33.842Z,13.65
2019-03-29T03:05:05.085Z,12.00
2019-03-29T03:05:36.295Z,12.53
2019-03-29T03:06:07.499Z,14.90
2019-03-29T03:06:38.714Z,12.00
2019-03-29T03:07:09.932Z,11.83
2019-03-29T03:07:41.142Z,11.28
2019-03-29T03:08:12.343Z,14.78
2019-03-29T03:08:43.583Z,11.70
2019-03-29T03:09:15.029Z,13.05
2019-03-29T03:09:46.291Z,17.90
2019-03-29T03:10:17.527Z,14.10
2019-03-29T03:10:48.732Z,12.33
2019-03-29T03:11:19.950Z,17.02
2019-03-29T03:11:51.162Z,13.72
2019-03-29T03:12:22.378Z,12.37
2019-03-29T03:12:53.587Z,14.13
2019-03-29T03:13:24.828Z,14.58
2019-03-29T03:13:56.050Z,14.50
2019-03-29T03:14:27.265Z,14.25
2019-03-29T03:15:00.513Z,15.70
2019-03-29T03:15:31.739Z,14.58
2019-03-29T03:16:02.955Z,14.50
2019-03-29T03:16:34.182Z,19.98
2019-03-29T03:17:05.424Z,13.95
2019-03-29T03:17:36.614Z,13.03
2019-03-29T03:18:07.827Z,15.85
2019-03-29T03:18:39.041Z,15.18
2019-03-29T03:19:10.243Z,14.03
2019-03-29T03:19:41.512Z,13.83
2019-03-29T03:20:15.509Z,11.53
2019-03-29T03:20:45.669Z,13.38
2019-03-29T03:21:16.905Z,12.95
2019-03-29T03:21:48.098Z,12.85
2019-03-29T03:22:19.312Z,10.82
2019-03-29T03:22:50.573Z,13.18
2019-03-29T03:23:21.861Z,14.38
2019-03-29T03:23:53.093Z,11.55
2019-03-29T03:24:24.357Z,13.38
2019-03-29T03:24:55.626Z,13.70
2019-03-29T03:25:26.849Z,13.95
2019-03-29T03:25:58.080Z,12.65
2019-03-29T03:26:29.304Z,18.02
2019-03-29T03:27:00.527Z,11.65
2019-03-29T03:27:31.768Z,14.28
2019-03-29T03:28:03.003Z,14.87
2019-03-29T03:28:34.237Z,14.38
2019-03-29T03:29:05.452Z,14.78
2019-03-29T03:29:36.701Z,16.23
2019-03-29T03:30:07.920Z,17.30
2019-03-29T03:30:39.181Z,16.20
2019-03-29T03:31:10.442Z,17.70
2019-03-29T03:31:41.662Z,18.23
2019-03-29T03:32:12.901Z,15.50
2019-03-29T03:32:44.160Z,19.52
2019-03-29T03:33:15.403Z,19.07
2019-03-29T03:33:46.595Z,18.82
2019-03-29T03:34:17.792Z,17.32
2019-03-29T03:34:49.038Z,15.93
2019-03-29T03:35:20.253Z,18.00
2019-03-29T03:35:51.481Z,18.30
2019-03-29T03:36:22.705Z,16.82
2019-03-29T03:36:53.895Z,20.25
2019-03-29T03:37:25.103Z,16.37
2019-03-29T03:37:56.305Z,18.57
2019-03-29T03:38:27.539Z,19.10
2019-03-29T03:38:58.743Z,17.70
2019-03-29T03:39:32.243Z,19.17
2019-03-29T03:40:02.939Z,17.77
2019-03-29T03:40:34.143Z,20.12
2019-03-29T03:41:05.347Z,19.87
2019-03-29T03:41:36.553Z,19.52
2019-03-29T03:42:07.761Z,17.98
2019-03-29T03:42:38.974Z,18.65
2019-03-29T03:43:10.186Z,18.07
2019-03-29T03:43:41.415Z,18.23
2019-03-29T03:44:12.626Z,18.75
2019-03-29T03:44:43.846Z,18.42
2019-03-29T03:45:15.135Z,17.50
2019-03-29T03:45:46.320Z,16.95
2019-03-29T03:46:17.521Z,17.62
2019-03-29T03:46:48.750Z,17.85
2019-03-29T03:47:19.953Z,17.67
2019-03-29T03:47:51.175Z,17.32
2019-03-29T03:48:22.400Z,17.05
2019-03-29T03:48:53.661Z,17.48
2019-03-29T03:49:24.914Z,17.48
2019-03-29T03:50:00.518Z,16.65
2019-03-29T03:50:29.178Z,16.00
2019-03-29T03:51:00.390Z,18.98
2019-03-29T03:51:31.608Z,16.77
2019-03-29T03:52:02.829Z,17.05
2019-03-29T03:52:34.069Z,17.95
2019-03-29T03:53:05.302Z,16.57
2019-03-29T03:53:36.505Z,17.57
2019-03-29T03:54:07.720Z,17.65
2019-03-29T03:54:38.938Z,21.25
2019-03-29T03:55:10.154Z,17.20
2019-03-29T03:55:41.397Z,19.00
2019-03-29T03:56:12.596Z,16.97
2019-03-29T03:56:43.817Z,16.48
2019-03-29T03:57:15.019Z,17.87
2019-03-29T03:57:46.287Z,18.92
2019-03-29T03:58:17.497Z,16.12
2019-03-29T03:58:48.708Z,17.50
2019-03-29T03:59:19.946Z,18.35
2019-03-29T03:59:51.185Z,17.80
2019-03-29T04:00:22.404Z,16.25
2019-03-29T04:00:53.638Z,18.32
2019-03-29T04:01:24.841Z,22.13
2019-03-29T04:01:56.062Z,20.50
2019-03-29T04:02:27.320Z,19.67
2019-03-29T04:02:58.537Z,18.45
2019-03-29T04:03:29.793Z,19.82
2019-03-29T04:04:01.005Z,20.80
2019-03-29T04:04:32.214Z,19.48
2019-03-29T04:05:03.433Z,20.90
2019-03-29T04:05:34.746Z,21.00
2019-03-29T04:06:05.954Z,21.25
2019-03-29T04:06:37.170Z,20.08
2019-03-29T04:07:08.373Z,20.70
2019-03-29T04:07:39.586Z,20.88
2019-03-29T04:08:10.799Z,21.37
2019-03-29T04:08:42.094Z,22.52
2019-03-29T04:09:13.318Z,20.62
2019-03-29T04:09:50.140Z,18.77
2019-03-29T04:10:17.548Z,21.90
2019-03-29T04:10:48.930Z,25.72
2019-03-29T04:11:20.189Z,21.77
2019-03-29T04:11:51.402Z,25.70
2019-03-29T04:12:22.621Z,22.85
2019-03-29T04:12:53.828Z,22.07
2019-03-29T04:13:25.037Z,23.20
2019-03-29T04:13:56.249Z,21.45
2019-03-29T04:14:27.448Z,22.70
2019-03-29T04:14:58.678Z,23.65
2019-03-29T04:15:29.916Z,23.25
2019-03-29T04:16:01.153Z,24.57
2019-03-29T04:16:32.361Z,23.80
2019-03-29T04:17:03.565Z,24.67
2019-03-29T04:17:34.800Z,22.62
2019-03-29T04:18:06.000Z,22.10
2019-03-29T04:18:37.231Z,24.60
2019-03-29T04:19:08.492Z,28.90
2019-03-29T04:19:39.742Z,24.25
2019-03-29T04:20:10.949Z,25.55
2019-03-29T04:20:42.193Z,22.87
2019-03-29T04:21:13.444Z,23.05
2019-03-29T04:21:44.660Z,20.68
2019-03-29T04:22:15.867Z,24.07
2019-03-29T04:22:47.127Z,22.27
2019-03-29T04:23:18.448Z,23.80
2019-03-29T04:23:49.681Z,20.62
2019-03-29T04:24:20.897Z,23.35
2019-03-29T04:24:52.111Z,24.15
2019-03-29T04:25:23.380Z,25.52
2019-03-29T04:25:54.603Z,24.27
2019-03-29T04:26:25.806Z,25.45
2019-03-29T04:26:57.011Z,24.65
2019-03-29T04:27:28.218Z,23.47
2019-03-29T04:27:59.450Z,25.37
2019-03-29T04:28:30.660Z,27.13
2019-03-29T04:29:04.982Z,24.87
2019-03-29T04:29:34.903Z,25.52
2019-03-29T04:30:06.244Z,30.32
2019-03-29T04:30:37.468Z,26.17
2019-03-29T04:31:08.744Z,28.10
2019-03-29T04:31:39.956Z,28.27
2019-03-29T04:32:11.177Z,23.65
2019-03-29T04:32:42.530Z,25.43
2019-03-29T04:33:13.745Z,24.98
2019-03-29T04:33:44.982Z,27.82
2019-03-29T04:34:16.214Z,26.33
2019-03-29T04:34:47.443Z,30.50
2019-03-29T04:35:18.716Z,30.77
2019-03-29T04:35:49.910Z,26.30
2019-03-29T04:36:21.177Z,29.57
2019-03-29T04:36:52.401Z,27.65
2019-03-29T04:37:23.616Z,27.65
2019-03-29T04:37:54.852Z,28.87
2019-03-29T04:38:26.062Z,31.97
2019-03-29T04:38:57.276Z,27.55
2019-03-29T04:39:28.496Z,28.60
2019-03-29T04:40:07.762Z,29.85
2019-03-29T04:40:32.662Z,30.82
2019-03-29T04:41:03.837Z,29.82
2019-03-29T04:41:35.125Z,31.40
2019-03-29T04:42:06.376Z,30.43
2019-03-29T04:42:37.582Z,31.50
2019-03-29T04:43:08.808Z,32.13
2019-03-29T04:43:40.017Z,30.12
2019-03-29T04:44:11.239Z,30.30
2019-03-29T04:44:42.447Z,32.95
2019-03-29T04:45:13.659Z,29.82
2019-03-29T04:45:44.868Z,32.00
2019-03-29T04:46:16.055Z,32.05
2019-03-29T04:46:47.305Z,32.83
2019-03-29T04:47:18.565Z,34.67
2019-03-29T04:47:49.842Z,32.13
2019-03-29T04:48:21.055Z,30.55
2019-03-29T04:48:52.264Z,29.35
2019-03-29T04:49:23.529Z,32.85
2019-03-29T04:49:54.778Z,33.25
2019-03-29T04:50:25.967Z,36.58
2019-03-29T04:50:57.178Z,32.60
2019-03-29T04:51:28.388Z,33.15
2019-03-29T04:51:59.592Z,29.48
2019-03-29T04:52:30.852Z,33.45
2019-03-29T04:53:02.085Z,34.67
2019-03-29T04:53:33.301Z,38.58
2019-03-29T04:54:04.509Z,33.80
2019-03-29T04:54:35.759Z,35.45
2019-03-29T04:55:06.988Z,30.77
2019-03-29T04:55:38.192Z,34.13
2019-03-29T04:56:09.408Z,33.30
2019-03-29T04:56:40.618Z,36.15
2019-03-29T04:57:11.880Z,35.50
2019-03-29T04:57:43.149Z,35.98
2019-03-29T04:58:14.333Z,35.25
2019-03-29T04:58:45.570Z,38.00
2019-03-29T04:59:16.775Z,34.90
2019-03-29T04:59:48.000Z,37.63
2019-03-29T05:00:19.206Z,39.88
2019-03-29T05:00:50.432Z,38.05
2019-03-29T05:01:21.649Z,36.77
2019-03-29T05:01:52.864Z,39.67
2019-03-29T05:02:24.076Z,43.85
2019-03-29T05:02:55.326Z,37.80
2019-03-29T05:03:26.579Z,41.48
2019-03-29T05:03:57.790Z,45.43
2019-03-29T05:04:29.002Z,39.75
2019-03-29T05:05:00.415Z,41.40
2019-03-29T05:05:31.606Z,41.10
2019-03-29T05:06:02.818Z,40.38
2019-03-29T05:06:34.012Z,37.88
2019-03-29T05:07:05.235Z,38.08
2019-03-29T05:07:37.156Z,40.78
2019-03-29T05:08:08.554Z,48.05
2019-03-29T05:08:39.764Z,41.73
2019-03-29T05:09:11.011Z,44.80
2019-03-29T05:09:42.212Z,41.77
2019-03-29T05:10:21.259Z,41.58
2019-03-29T05:10:46.393Z,42.53
2019-03-29T05:11:17.592Z,38.78
2019-03-29T05:11:48.797Z,44.23
2019-03-29T05:12:20.026Z,44.90
2019-03-29T05:12:51.251Z,42.27
2019-03-29T05:13:22.499Z,40.67
2019-03-29T05:13:53.711Z,38.78
2019-03-29T05:14:24.929Z,39.15
2019-03-29T05:14:56.144Z,39.15
2019-03-29T05:15:27.358Z,33.73
2019-03-29T05:15:58.601Z,38.05
2019-03-29T05:16:29.814Z,46.30
2019-03-29T05:17:01.023Z,43.68
2019-03-29T05:17:32.280Z,46.42
2019-03-29T05:18:03.482Z,36.10
2019-03-29T05:18:34.681Z,39.67
2019-03-29T05:19:05.884Z,38.55
2019-03-29T05:19:37.125Z,37.70
2019-03-29T05:20:08.313Z,35.50
2019-03-29T05:20:39.578Z,41.77
2019-03-29T05:21:10.805Z,40.73
2019-03-29T05:21:42.056Z,40.00
2019-03-29T05:22:13.277Z,45.92
2019-03-29T05:22:44.471Z,39.18
2019-03-29T05:23:15.721Z,39.53
2019-03-29T05:23:46.968Z,39.83
2019-03-29T05:24:18.167Z,33.30
2019-03-29T05:24:49.397Z,32.28
2019-03-29T05:25:20.661Z,36.93
2019-03-29T05:25:51.856Z,35.92
2019-03-29T05:26:25.456Z,35.38
2019-03-29T05:26:56.101Z,37.20
2019-03-29T05:27:27.272Z,32.50
2019-03-29T05:27:58.476Z,33.38
2019-03-29T05:28:29.716Z,30.85
2019-03-29T05:29:00.937Z,31.60
2019-03-29T05:29:32.265Z,27.35
2019-03-29T05:30:03.436Z,28.35
2019-03-29T05:30:34.721Z,30.37
2019-03-29T05:31:05.928Z,29.82
2019-03-29T05:31:37.149Z,32.88
2019-03-29T05:32:08.498Z,28.67
2019-03-29T05:32:39.741Z,27.17
2019-03-29T05:33:10.953Z,30.45
2019-03-29T05:33:42.208Z,29.95
2019-03-29T05:34:13.415Z,28.75
2019-03-29T05:34:44.622Z,28.00
2019-03-29T05:35:15.827Z,27.60
2019-03-29T05:35:47.053Z,28.15
2019-03-29T05:36:18.281Z,30.20
2019-03-29T05:36:49.490Z,28.87
2019-03-29T05:37:20.725Z,30.65
2019-03-29T05:37:52.026Z,34.67
2019-03-29T05:38:23.232Z,33.63
2019-03-29T05:38:54.460Z,31.77
2019-03-29T05:39:25.651Z,31.60
2019-03-29T05:39:56.846Z,32.88
2019-03-29T05:40:34.989Z,33.38
2019-03-29T05:41:01.081Z,31.82
2019-03-29T05:41:32.294Z,26.77
2019-03-29T05:42:03.510Z,30.17
2019-03-29T05:42:34.845Z,28.95
2019-03-29T05:43:06.032Z,30.70
2019-03-29T05:43:37.294Z,30.72
2019-03-29T05:44:08.567Z,31.25
2019-03-29T05:44:40.924Z,31.27
2019-03-29T05:45:12.260Z,29.57
2019-03-29T05:45:43.502Z,30.20
2019-03-29T05:46:14.711Z,26.37
2019-03-29T05:46:45.920Z,32.63
2019-03-29T05:47:17.158Z,31.68
2019-03-29T05:47:48.427Z,32.90
2019-03-29T05:48:19.666Z,28.30
2019-03-29T05:48:50.916Z,32.70
2019-03-29T05:49:22.126Z,28.25
2019-03-29T05:49:53.581Z,29.40
2019-03-29T05:50:24.771Z,32.88
2019-03-29T05:50:55.974Z,27.32
2019-03-29T05:51:27.190Z,28.47
2019-03-29T05:51:58.416Z,31.05
2019-03-29T05:52:29.634Z,27.93
2019-03-29T05:53:00.919Z,26.00
2019-03-29T05:53:32.129Z,27.02
2019-03-29T05:54:03.342Z,29.65
2019-03-29T05:54:34.546Z,27.00
2019-03-29T05:55:05.781Z,31.48
2019-03-29T05:55:37.113Z,31.77
2019-03-29T05:56:08.316Z,26.60
2019-03-29T05:56:39.529Z,28.98
2019-03-29T05:57:10.733Z,30.60
2019-03-29T05:57:41.928Z,29.37
2019-03-29T05:58:13.222Z,30.75
2019-03-29T05:58:44.472Z,29.05
2019-03-29T05:59:15.680Z,27.20
2019-03-29T05:59:46.894Z,26.27
2019-03-29T06:00:18.094Z,26.77
2019-03-29T06:00:49.302Z,26.73
2019-03-29T06:01:20.509Z,28.40
2019-03-29T06:01:51.752Z,26.30
2019-03-29T06:02:22.953Z,33.00
2019-03-29T06:02:54.248Z,30.27
2019-03-29T06:03:25.460Z,31.07
2019-03-29T06:03:56.766Z,34.18
2019-03-29T06:04:27.989Z,25.75
2019-03-29T06:04:59.206Z,28.40
2019-03-29T06:05:30.449Z,25.70
2019-03-29T06:06:01.691Z,27.52
2019-03-29T06:06:32.901Z,30.15
2019-03-29T06:07:04.264Z,25.70
2019-03-29T06:07:35.502Z,25.72
2019-03-29T06:08:06.713Z,26.17
2019-03-29T06:08:37.916Z,24.98
2019-03-29T06:09:09.154Z,25.70
2019-03-29T06:09:40.460Z,27.52
2019-03-29T06:10:11.649Z,25.75
2019-03-29T06:10:48.835Z,25.90
2019-03-29T06:11:15.809Z,25.12
2019-03-29T06:11:47.011Z,27.62
2019-03-29T06:12:18.299Z,26.35
2019-03-29T06:12:49.518Z,28.50
2019-03-29T06:13:20.797Z,26.60
2019-03-29T06:13:52.018Z,26.05
2019-03-29T06:14:23.238Z,25.40
2019-03-29T06:14:54.434Z,25.92
2019-03-29T06:15:25.647Z,25.62
2019-03-29T06:15:56.863Z,30.32
2019-03-29T06:16:38.269Z,26.93
2019-03-29T06:17:01.057Z,24.25
2019-03-29T06:17:32.386Z,27.65
2019-03-29T06:18:03.598Z,28.90
2019-03-29T06:18:34.843Z,25.82
2019-03-29T06:19:06.047Z,23.75
2019-03-29T06:19:37.297Z,24.87
2019-03-29T06:20:08.503Z,25.23
2019-03-29T06:20:39.746Z,28.10
2019-03-29T06:21:10.972Z,25.10
2019-03-29T06:21:42.189Z,23.22
2019-03-29T06:22:13.443Z,26.73
2019-03-29T06:22:44.693Z,25.40
2019-03-29T06:23:15.899Z,23.18
2019-03-29T06:23:47.103Z,21.93
2019-03-29T06:24:18.312Z,18.77
2019-03-29T06:24:49.577Z,21.57
2019-03-29T06:25:20.848Z,25.00
2019-03-29T06:25:52.045Z,21.37
2019-03-29T06:26:23.484Z,25.17
2019-03-29T06:26:54.717Z,22.82
2019-03-29T06:27:25.935Z,22.95
2019-03-29T06:27:57.130Z,20.00
2019-03-29T06:28:29.975Z,21.50
2019-03-29T06:29:01.448Z,21.10
2019-03-29T06:29:32.736Z,24.02
2019-03-29T06:30:03.984Z,17.70
2019-03-29T06:30:35.210Z,19.35
2019-03-29T06:31:06.421Z,21.35
2019-03-29T06:31:37.648Z,19.12
2019-03-29T06:32:08.854Z,19.50
2019-03-29T06:32:40.106Z,23.52
2019-03-29T06:33:11.330Z,24.37
2019-03-29T06:33:44.528Z,21.77
2019-03-29T06:34:15.481Z,21.12
2019-03-29T06:34:46.685Z,20.90
2019-03-29T06:35:17.905Z,21.62
2019-03-29T06:35:49.104Z,22.73
2019-03-29T06:36:20.339Z,20.43
2019-03-29T06:36:51.569Z,20.12
2019-03-29T06:37:22.791Z,19.75
2019-03-29T06:37:54.090Z,18.40
2019-03-29T06:38:25.355Z,22.48
2019-03-29T06:38:56.574Z,18.05
2019-03-29T06:39:27.776Z,19.35
2019-03-29T06:39:58.992Z,17.77
2019-03-29T06:40:30.251Z,17.85
2019-03-29T06:41:03.161Z,15.80
2019-03-29T06:41:34.394Z,19.30
2019-03-29T06:42:05.602Z,16.02
2019-03-29T06:42:36.807Z,19.57
2019-03-29T06:43:08.052Z,21.57
2019-03-29T06:43:39.344Z,15.80
2019-03-29T06:44:10.569Z,17.27
2019-03-29T06:44:44.338Z,16.20
2019-03-29T06:45:14.738Z,14.87